createdAt,value
2017-09-20T00:01:05.555Z,41.17
2017-09-20T00:02:14.251Z,41.27
2017-09-20T00:03:23.903Z,41.75
2017-09-20T00:04:32.599Z,41.07
2017-09-20T00:05:42.256Z,41.75
2017-09-20T00:06:51.915Z,41.84
2017-09-20T00:08:00.928Z,41.17
2017-09-20T00:09:09.625Z,41.17
2017-09-20T00:10:18.638Z,41.36
2017-09-20T00:11:27.652Z,41.27
2017-09-20T00:12:36.996Z,41.65
2017-09-20T00:13:45.690Z,41.27
2017-09-20T00:14:55.023Z,41.94
2017-09-20T00:16:03.722Z,41.27
2017-09-20T00:17:13.057Z,41.24
2017-09-20T00:18:21.753Z,41.24
2017-09-20T00:19:30.766Z,41.84
2017-09-20T00:20:39.782Z,41.72
2017-09-20T00:21:48.480Z,41.14
2017-09-20T00:22:57.495Z,41.94
2017-09-20T00:24:06.509Z,41.82
2017-09-20T00:25:15.524Z,41.14
2017-09-20T00:26:24.540Z,41.72
2017-09-20T00:27:33.875Z,41.24
2017-09-20T00:28:42.570Z,41.24
2017-09-20T00:29:51.623Z,41.24
2017-09-20T00:31:00.638Z,41.72
2017-09-20T00:32:09.977Z,41.14
2017-09-20T00:33:19.631Z,41.24
2017-09-20T00:34:28.645Z,41.24
2017-09-20T00:35:37.981Z,41.14
2017-09-20T00:36:46.996Z,41.24
2017-09-20T00:37:55.691Z,41.24
2017-09-20T00:39:04.706Z,41.14
2017-09-20T00:40:13.729Z,41.92
2017-09-20T00:41:22.423Z,41.72
2017-09-20T00:42:31.754Z,40.76
2017-09-20T00:43:40.774Z,41.14
2017-09-20T00:44:49.790Z,41.14
2017-09-20T00:45:58.483Z,40.76
2017-09-20T00:47:07.814Z,41.14
2017-09-20T00:48:17.150Z,41.24
2017-09-20T00:49:26.799Z,40.86
2017-09-20T00:50:35.820Z,41.14
2017-09-20T00:51:45.800Z,41.05
2017-09-20T00:52:54.497Z,41.14
2017-09-20T00:54:03.838Z,41.14
2017-09-20T00:55:12.537Z,41.72
2017-09-20T00:56:21.230Z,41.53
2017-09-20T00:57:30.890Z,41.34
2017-09-20T00:58:40.226Z,41.05
2017-09-20T00:59:49.562Z,41.05
2017-09-20T01:00:58.256Z,41.24
2017-09-20T01:02:07.270Z,41.34
2017-09-20T01:03:15.965Z,41.53
2017-09-20T01:04:24.657Z,41.24
2017-09-20T01:05:33.670Z,41.24
2017-09-20T01:06:43.321Z,40.95
2017-09-20T01:07:52.334Z,41.14
2017-09-20T01:09:01.033Z,40.95
2017-09-20T01:10:09.727Z,40.95
2017-09-20T01:11:19.701Z,41.53
2017-09-20T01:12:29.031Z,41.14
2017-09-20T01:13:38.051Z,41.14
2017-09-20T01:14:47.711Z,40.95
2017-09-20T01:15:56.724Z,40.95
2017-09-20T01:17:05.740Z,40.95
2017-09-20T01:18:15.395Z,40.95
2017-09-20T01:19:24.734Z,41.53
2017-09-20T01:20:33.749Z,41.05
2017-09-20T01:21:42.764Z,41.05
2017-09-20T01:22:51.778Z,42.11
2017-09-20T01:24:00.794Z,41.05
2017-09-20T01:25:09.810Z,41.14
2017-09-20T01:26:19.464Z,42.11
2017-09-20T01:27:28.476Z,41.34
2017-09-20T01:28:37.815Z,41.14
2017-09-20T01:29:46.831Z,41.05
2017-09-20T01:30:55.527Z,42.11
2017-09-20T01:32:05.185Z,42.21
2017-09-20T01:33:13.880Z,42.11
2017-09-20T01:34:23.855Z,41.34
2017-09-20T01:35:32.870Z,41.05
2017-09-20T01:36:41.892Z,41.05
2017-09-20T01:37:51.543Z,41.44
2017-09-20T01:39:00.238Z,42.11
2017-09-20T01:40:09.250Z,41.14
2017-09-20T01:41:17.959Z,41.05
2017-09-20T01:42:26.656Z,41.34
2017-09-20T01:43:35.987Z,41.05
2017-09-20T01:44:45.002Z,41.24
2017-09-20T01:45:54.660Z,42.02
2017-09-20T01:47:03.993Z,41.82
2017-09-20T01:48:13.008Z,41.72
2017-09-20T01:49:22.983Z,41.05
2017-09-20T01:50:32.321Z,41.05
2017-09-20T01:51:41.016Z,41.14
2017-09-20T01:52:50.028Z,41.05
2017-09-20T01:53:59.042Z,41.53
2017-09-20T01:55:08.378Z,42.02
2017-09-20T01:56:17.393Z,42.11
2017-09-20T01:57:26.086Z,41.05
2017-09-20T01:58:34.781Z,41.24
2017-09-20T01:59:43.475Z,41.72
2017-09-20T02:00:52.807Z,41.05
2017-09-20T02:02:01.820Z,41.44
2017-09-20T02:03:10.834Z,41.44
2017-09-20T02:04:20.169Z,41.44
2017-09-20T02:05:29.507Z,41.05
2017-09-20T02:06:38.524Z,41.82
2017-09-20T02:07:47.219Z,41.53
2017-09-20T02:08:56.871Z,41.82
2017-09-20T02:10:06.530Z,41.05
2017-09-20T02:11:15.863Z,41.53
2017-09-20T02:12:25.197Z,41.14
2017-09-20T02:13:34.214Z,41.53
2017-09-20T02:14:43.548Z,41.82
2017-09-20T02:15:52.885Z,41.44
2017-09-20T02:17:01.900Z,41.14
2017-09-20T02:18:11.236Z,42.11
2017-09-20T02:19:20.252Z,41.53
2017-09-20T02:20:29.265Z,41.53
2017-09-20T02:21:37.961Z,41.82
2017-09-20T02:22:46.653Z,41.14
2017-09-20T02:23:55.667Z,41.34
2017-09-20T02:25:04.679Z,41.72
2017-09-20T02:26:14.011Z,41.53
2017-09-20T02:27:23.024Z,41.82
2017-09-20T02:28:32.367Z,41.05
2017-09-20T02:29:41.063Z,41.05
2017-09-20T02:30:50.432Z,41.44
2017-09-20T02:31:59.412Z,40.86
2017-09-20T02:33:08.746Z,40.86
2017-09-20T02:34:17.444Z,42.02
2017-09-20T02:35:26.779Z,41.53
2017-09-20T02:36:35.796Z,41.05
2017-09-20T02:37:45.136Z,41.44
2017-09-20T02:38:54.471Z,40.86
2017-09-20T02:40:03.812Z,41.82
2017-09-20T02:41:12.831Z,41.92
2017-09-20T02:42:22.488Z,41.05
2017-09-20T02:43:31.504Z,41.44
2017-09-20T02:44:40.524Z,41.53
2017-09-20T02:45:50.831Z,41.24
2017-09-20T02:46:59.845Z,41.53
2017-09-20T02:48:09.180Z,41.14
2017-09-20T02:49:18.517Z,41.34
2017-09-20T02:50:27.847Z,41.34
2017-09-20T02:51:36.544Z,42.02
2017-09-20T02:52:45.560Z,41.82
2017-09-20T02:53:54.897Z,41.24
2017-09-20T02:55:04.244Z,42.02
2017-09-20T02:56:13.257Z,41.92
2017-09-20T02:57:22.590Z,41.53
2017-09-20T02:58:31.283Z,41.92
2017-09-20T02:59:39.978Z,41.53
2017-09-20T03:00:48.991Z,41.53
2017-09-20T03:01:58.644Z,42.02
2017-09-20T03:03:07.660Z,41.34
2017-09-20T03:04:16.995Z,41.44
2017-09-20T03:05:26.011Z,42.02
2017-09-20T03:06:35.027Z,41.53
2017-09-20T03:07:44.362Z,41.44
2017-09-20T03:08:53.374Z,42.09
2017-09-20T03:10:02.393Z,41.34
2017-09-20T03:11:12.051Z,41.32
2017-09-20T03:12:21.702Z,41.44
2017-09-20T03:13:31.036Z,41.32
2017-09-20T03:14:40.375Z,41.72
2017-09-20T03:15:49.712Z,41.32
2017-09-20T03:16:59.045Z,41.99
2017-09-20T03:18:08.382Z,41.89
2017-09-20T03:19:17.717Z,41.32
2017-09-20T03:20:27.057Z,41.53
2017-09-20T03:21:36.071Z,41.41
2017-09-20T03:22:45.084Z,41.51
2017-09-20T03:23:54.103Z,41.41
2017-09-20T03:25:03.438Z,42.02
2017-09-20T03:26:12.133Z,41.99
2017-09-20T03:27:20.829Z,41.41
2017-09-20T03:28:29.523Z,41.92
2017-09-20T03:29:38.537Z,41.99
2017-09-20T03:30:48.190Z,41.53
2017-09-20T03:31:57.523Z,41.51
2017-09-20T03:33:06.217Z,41.41
2017-09-20T03:34:15.231Z,41.51
2017-09-20T03:35:24.246Z,41.89
2017-09-20T03:36:33.261Z,41.51
2017-09-20T03:37:42.278Z,41.32
2017-09-20T03:38:51.291Z,41.89
2017-09-20T03:39:59.987Z,41.32
2017-09-20T03:41:08.678Z,41.99
2017-09-20T03:42:17.694Z,41.99
2017-09-20T03:43:27.672Z,41.89
2017-09-20T03:44:36.693Z,41.32
2017-09-20T03:45:46.346Z,41.41
2017-09-20T03:46:55.999Z,41.51
2017-09-20T03:48:05.015Z,41.41
2017-09-20T03:49:14.028Z,41.89
2017-09-20T03:50:22.725Z,41.8
2017-09-20T03:51:32.061Z,41.03
2017-09-20T03:52:41.716Z,41.13
2017-09-20T03:53:50.412Z,41.51
2017-09-20T03:54:59.746Z,41.13
2017-09-20T03:56:08.763Z,40.94
2017-09-20T03:57:18.100Z,41.41
2017-09-20T03:58:27.151Z,41.24
2017-09-20T03:59:37.132Z,41.32
2017-09-20T04:00:45.824Z,41.32
2017-09-20T04:01:55.162Z,41.13
2017-09-20T04:03:04.496Z,41.22
2017-09-20T04:04:13.509Z,41.32
2017-09-20T04:05:22.522Z,41.32
2017-09-20T04:06:31.536Z,41.61
2017-09-20T04:07:40.231Z,41.03
2017-09-20T04:08:48.927Z,41.05
2017-09-20T04:09:57.618Z,41.72
2017-09-20T04:11:06.314Z,40.84
2017-09-20T04:12:15.966Z,41.34
2017-09-20T04:13:24.981Z,41.22
2017-09-20T04:14:33.994Z,41.24
2017-09-20T04:15:43.017Z,41.24
2017-09-20T04:16:52.349Z,41.34
2017-09-20T04:18:01.365Z,41.14
2017-09-20T04:19:10.061Z,40.95
2017-09-20T04:20:19.394Z,41.24
2017-09-20T04:21:28.729Z,41.24
2017-09-20T04:22:37.746Z,41.24
2017-09-20T04:23:46.441Z,41.92
2017-09-20T04:24:55.787Z,41.44
2017-09-20T04:26:05.122Z,41.24
2017-09-20T04:27:14.458Z,41.24
2017-09-20T04:28:23.473Z,41.34
2017-09-20T04:29:32.816Z,41.24
2017-09-20T04:30:41.830Z,41.24
2017-09-20T04:31:50.531Z,41.34
2017-09-20T04:32:59.223Z,41.44
2017-09-20T04:34:08.236Z,41.44
2017-09-20T04:35:16.931Z,41.44
2017-09-20T04:36:25.945Z,41.34
2017-09-20T04:37:35.598Z,41.44
2017-09-20T04:38:45.251Z,41.14
2017-09-20T04:39:54.272Z,41.14
2017-09-20T04:41:03.284Z,41.14
2017-09-20T04:42:12.320Z,41.24
2017-09-20T04:43:21.658Z,41.53
2017-09-20T04:44:30.995Z,41.14
2017-09-20T04:45:39.690Z,41.14
2017-09-20T04:46:49.022Z,41.24
2017-09-20T04:47:58.039Z,41.24
2017-09-20T04:49:07.373Z,40.76
2017-09-20T04:50:16.386Z,41.05
2017-09-20T04:51:25.397Z,40.86
2017-09-20T04:52:34.413Z,41.53
2017-09-20T04:53:43.749Z,41.05
2017-09-20T04:54:53.082Z,41.53
2017-09-20T04:56:02.424Z,41.72
2017-09-20T04:57:11.117Z,41.63
2017-09-20T04:58:19.812Z,41.53
2017-09-20T04:59:28.507Z,42.49
2017-09-20T05:00:37.522Z,42.49
2017-09-20T05:01:46.855Z,42.88
2017-09-20T05:02:55.551Z,42.88
2017-09-20T05:04:04.247Z,42.3
2017-09-20T05:05:13.581Z,42.49
2017-09-20T05:06:23.236Z,42.11
2017-09-20T05:07:31.931Z,42.11
2017-09-20T05:08:40.946Z,42.02
2017-09-20T05:09:49.959Z,42.4
2017-09-20T05:10:58.973Z,42.3
2017-09-20T05:12:08.308Z,42.79
2017-09-20T05:13:17.324Z,42.21
2017-09-20T05:14:26.337Z,42.02
2017-09-20T05:15:35.673Z,42.21
2017-09-20T05:16:45.019Z,41.92
2017-09-20T05:17:54.676Z,41.63
2017-09-20T05:19:04.010Z,41.63
2017-09-20T05:20:12.703Z,41.72
2017-09-20T05:21:21.721Z,41.82
2017-09-20T05:22:31.058Z,41.63
2017-09-20T05:23:39.751Z,41.72
2017-09-20T05:24:48.446Z,41.53
2017-09-20T05:25:57.466Z,41.53
2017-09-20T05:27:06.799Z,41.72
2017-09-20T05:28:16.133Z,41.44
2017-09-20T05:29:25.146Z,41.63
2017-09-20T05:30:35.114Z,41.63
2017-09-20T05:31:44.771Z,41.72
2017-09-20T05:32:53.787Z,42.11
2017-09-20T05:34:03.119Z,42.02
2017-09-20T05:35:12.133Z,42.4
2017-09-20T05:36:21.793Z,42.21
2017-09-20T05:37:31.773Z,42.59
2017-09-20T05:38:40.790Z,42.69
2017-09-20T05:39:49.486Z,43.27
2017-09-20T05:40:58.178Z,42.59
2017-09-20T05:42:06.874Z,42.69
2017-09-20T05:43:16.528Z,42.71
2017-09-20T05:44:25.544Z,42.42
2017-09-20T05:45:34.236Z,42.21
2017-09-20T05:46:43.250Z,42.4
2017-09-20T05:47:52.586Z,42.71
2017-09-20T05:49:01.918Z,42.13
2017-09-20T05:50:10.943Z,42.71
2017-09-20T05:51:19.954Z,42.61
2017-09-20T05:52:28.974Z,42.61
2017-09-20T05:53:38.317Z,42.52
2017-09-20T05:54:47.697Z,42.71
2017-09-20T05:55:57.042Z,42.71
2017-09-20T05:57:05.735Z,42.9
2017-09-20T05:58:14.427Z,42.8
2017-09-20T05:59:23.766Z,42.9
2017-09-20T06:00:32.779Z,42.8
2017-09-20T06:01:41.794Z,42.9
2017-09-20T06:02:51.446Z,43.19
2017-09-20T06:04:00.142Z,43.38
2017-09-20T06:05:09.153Z,43
2017-09-20T06:06:18.167Z,42.8
2017-09-20T06:07:27.182Z,42.71
2017-09-20T06:08:36.195Z,42.71
2017-09-20T06:09:45.533Z,42.9
2017-09-20T06:10:54.550Z,42.61
2017-09-20T06:12:03.882Z,42.52
2017-09-20T06:13:12.576Z,42.42
2017-09-20T06:14:21.918Z,42.32
2017-09-20T06:15:31.248Z,42.61
2017-09-20T06:16:40.263Z,42.13
2017-09-20T06:17:48.958Z,42.13
2017-09-20T06:18:57.650Z,42.03
2017-09-20T06:20:06.671Z,42.03
2017-09-20T06:21:15.692Z,42.03
2017-09-20T06:22:25.024Z,41.94
2017-09-20T06:23:33.718Z,42.13
2017-09-20T06:24:42.730Z,42.23
2017-09-20T06:25:51.424Z,42.13
2017-09-20T06:27:00.120Z,42.52
2017-09-20T06:28:09.139Z,42.61
2017-09-20T06:29:18.161Z,42.52
2017-09-20T06:30:27.507Z,42.52
2017-09-20T06:31:36.200Z,42.03
2017-09-20T06:32:45.216Z,42.61
2017-09-20T06:33:54.872Z,42.23
2017-09-20T06:35:03.567Z,42.52
2017-09-20T06:36:13.544Z,42.52
2017-09-20T06:37:22.239Z,42.42
2017-09-20T06:38:30.933Z,42.42
2017-09-20T06:39:39.947Z,42.42
2017-09-20T06:40:48.641Z,42.52
2017-09-20T06:41:57.655Z,42.32
2017-09-20T06:43:06.688Z,42.42
2017-09-20T06:44:15.737Z,41.94
2017-09-20T06:45:24.754Z,42.03
2017-09-20T06:46:34.087Z,42.32
2017-09-20T06:47:42.780Z,42.23
2017-09-20T06:48:52.114Z,42.23
2017-09-20T06:50:01.129Z,42.71
2017-09-20T06:51:10.153Z,42.13
2017-09-20T06:52:19.167Z,42.42
2017-09-20T06:53:27.864Z,42.42
2017-09-20T06:54:36.878Z,42.13
2017-09-20T06:55:45.574Z,41.84
2017-09-20T06:56:54.916Z,41.65
2017-09-20T06:58:03.929Z,41.75
2017-09-20T06:59:13.584Z,41.36
2017-09-20T07:00:22.603Z,41.46
2017-09-20T07:01:31.624Z,41.65
2017-09-20T07:02:41.280Z,42.03
2017-09-20T07:03:50.939Z,41.65
2017-09-20T07:05:00.593Z,41.46
2017-09-20T07:06:09.929Z,41.55
2017-09-20T07:07:19.582Z,41.55
2017-09-20T07:08:28.926Z,41.55
2017-09-20T07:09:38.580Z,41.55
2017-09-20T07:10:47.595Z,41.46
2017-09-20T07:11:56.931Z,42.03
2017-09-20T07:13:06.268Z,41.84
2017-09-20T07:14:14.962Z,41.17
2017-09-20T07:15:23.979Z,41.75
2017-09-20T07:16:33.313Z,41.17
2017-09-20T07:17:42.647Z,41.17
2017-09-20T07:18:51.980Z,41.75
2017-09-20T07:20:01.312Z,41.84
2017-09-20T07:21:10.329Z,41.27
2017-09-20T07:22:19.666Z,41.36
2017-09-20T07:23:28.726Z,41.27
2017-09-20T07:24:37.420Z,41.48
2017-09-20T07:25:46.435Z,41.27
2017-09-20T07:26:55.772Z,41.17
2017-09-20T07:28:05.107Z,41.17
2017-09-20T07:29:13.811Z,41.65
2017-09-20T07:30:22.508Z,41.09
2017-09-20T07:31:31.521Z,41.27
2017-09-20T07:32:40.856Z,40.88
2017-09-20T07:33:49.872Z,40.88
2017-09-20T07:34:58.566Z,40.78
2017-09-20T07:36:07.900Z,40.97
2017-09-20T07:37:16.911Z,40.8
2017-09-20T07:38:25.605Z,41.17
2017-09-20T07:39:34.622Z,40.7
2017-09-20T07:40:44.279Z,40.78
2017-09-20T07:41:53.935Z,40.78
2017-09-20T07:43:03.266Z,41.19
2017-09-20T07:44:11.964Z,40.9
2017-09-20T07:45:20.662Z,41.07
2017-09-20T07:46:30.001Z,40.8
2017-09-20T07:47:39.015Z,40.61
2017-09-20T07:48:48.029Z,41.36
2017-09-20T07:49:57.365Z,40.7
2017-09-20T07:51:06.376Z,40.39
2017-09-20T07:52:16.031Z,40.51
2017-09-20T07:53:25.683Z,40.69
2017-09-20T07:54:35.018Z,40.9
2017-09-20T07:55:44.037Z,40.69
2017-09-20T07:56:53.377Z,40.59
2017-09-20T07:58:02.399Z,40.51
2017-09-20T07:59:11.095Z,40.42
2017-09-20T08:00:20.113Z,40.39
2017-09-20T08:01:29.129Z,40.39
2017-09-20T08:02:37.828Z,40.49
2017-09-20T08:03:47.165Z,40.61
2017-09-20T08:04:56.179Z,40.2
2017-09-20T08:06:05.512Z,40.42
2017-09-20T08:07:14.850Z,40.51
2017-09-20T08:08:24.186Z,40.7
2017-09-20T08:09:33.519Z,40.42
2017-09-20T08:10:43.174Z,40.32
2017-09-20T08:11:52.514Z,40.32
2017-09-20T08:13:01.525Z,40.32
2017-09-20T08:14:10.540Z,40.8
2017-09-20T08:15:19.880Z,40.51
2017-09-20T08:16:28.894Z,40.51
2017-09-20T08:17:38.229Z,40.32
2017-09-20T08:18:46.924Z,40.9
2017-09-20T08:19:56.582Z,40.32
2017-09-20T08:21:05.593Z,40.7
2017-09-20T08:22:14.934Z,40.8
2017-09-20T08:23:24.586Z,40.22
2017-09-20T08:24:33.599Z,40.32
2017-09-20T08:25:42.618Z,40.32
2017-09-20T08:26:51.960Z,40.7
2017-09-20T08:28:01.615Z,40.42
2017-09-20T08:29:10.632Z,40.22
2017-09-20T08:30:19.972Z,40.32
2017-09-20T08:31:29.946Z,40.8
2017-09-20T08:32:39.277Z,40.42
2017-09-20T08:33:48.292Z,40.9
2017-09-20T08:34:57.624Z,40.9
2017-09-20T08:36:07.279Z,40.32
2017-09-20T08:37:16.294Z,40.32
2017-09-20T08:38:24.988Z,40.42
2017-09-20T08:39:34.320Z,40.42
2017-09-20T08:40:43.013Z,40.22
2017-09-20T08:41:52.029Z,40.42
2017-09-20T08:43:00.722Z,40.42
2017-09-20T08:44:10.054Z,40.9
2017-09-20T08:45:18.760Z,40.61
2017-09-20T08:46:27.455Z,41.09
2017-09-20T08:47:36.470Z,40.32
2017-09-20T08:48:45.164Z,40.42
2017-09-20T08:49:53.858Z,40.51
2017-09-20T08:51:03.192Z,40.9
2017-09-20T08:52:12.205Z,40.32
2017-09-20T08:53:21.544Z,40.12
2017-09-20T08:54:30.555Z,40.51
2017-09-20T08:55:39.249Z,40.8
2017-09-20T08:56:48.267Z,40.99
2017-09-20T08:57:56.960Z,40.32
2017-09-20T08:59:05.653Z,40.9
2017-09-20T09:00:14.350Z,40.99
2017-09-20T09:01:23.368Z,40.42
2017-09-20T09:02:32.381Z,41.09
2017-09-20T09:03:41.720Z,40.7
2017-09-20T09:04:50.734Z,40.61
2017-09-20T09:05:59.750Z,40.7
2017-09-20T09:07:08.767Z,40.32
2017-09-20T09:08:17.460Z,40.12
2017-09-20T09:09:26.796Z,40.12
2017-09-20T09:10:35.491Z,40.22
2017-09-20T09:11:44.504Z,40.12
2017-09-20T09:12:53.518Z,40.7
2017-09-20T09:14:02.850Z,40.42
2017-09-20T09:15:11.865Z,40.61
2017-09-20T09:16:21.519Z,39.84
2017-09-20T09:17:30.537Z,39.94
2017-09-20T09:18:39.550Z,40.32
2017-09-20T09:19:49.203Z,40.22
2017-09-20T09:20:58.218Z,39.84
2017-09-20T09:22:06.914Z,39.74
2017-09-20T09:23:15.930Z,39.94
2017-09-20T09:24:24.624Z,40.12
2017-09-20T09:25:33.319Z,39.64
2017-09-20T09:26:42.331Z,39.74
2017-09-20T09:27:51.344Z,40.32
2017-09-20T09:29:00.678Z,40.03
2017-09-20T09:30:09.695Z,40.32
2017-09-20T09:31:19.347Z,39.84
2017-09-20T09:32:28.682Z,40.03
2017-09-20T09:33:37.378Z,40.12
2017-09-20T09:34:46.709Z,39.74
2017-09-20T09:35:55.723Z,39.94
2017-09-20T09:37:04.739Z,39.64
2017-09-20T09:38:14.390Z,39.84
2017-09-20T09:39:23.407Z,40.03
2017-09-20T09:40:32.101Z,39.74
2017-09-20T09:41:40.796Z,40.32
2017-09-20T09:42:49.811Z,40.12
2017-09-20T09:43:59.146Z,39.74
2017-09-20T09:45:08.479Z,39.94
2017-09-20T09:46:18.137Z,39.54
2017-09-20T09:47:27.146Z,39.74
2017-09-20T09:48:36.485Z,39.64
2017-09-20T09:49:45.824Z,40.15
2017-09-20T09:50:54.839Z,39.74
2017-09-20T09:52:04.174Z,39.86
2017-09-20T09:53:13.189Z,40.22
2017-09-20T09:54:22.525Z,39.74
2017-09-20T09:55:31.544Z,39.64
2017-09-20T09:56:40.561Z,39.74
2017-09-20T09:57:49.899Z,40.22
2017-09-20T09:58:58.595Z,39.84
2017-09-20T10:00:08.251Z,40.24
2017-09-20T10:01:17.264Z,39.84
2017-09-20T10:02:25.957Z,39.74
2017-09-20T10:03:34.970Z,39.84
2017-09-20T10:04:43.990Z,39.95
2017-09-20T10:05:53.323Z,39.86
2017-09-20T10:07:02.339Z,40.32
2017-09-20T10:08:11.355Z,39.84
2017-09-20T10:09:21.008Z,39.64
2017-09-20T10:10:30.985Z,39.84
2017-09-20T10:11:40.319Z,39.94
2017-09-20T10:12:49.654Z,39.74
2017-09-20T10:13:58.673Z,39.84
2017-09-20T10:15:07.697Z,39.76
2017-09-20T10:16:16.704Z,39.74
2017-09-20T10:17:25.421Z,39.64
2017-09-20T10:18:34.735Z,40.32
2017-09-20T10:19:43.747Z,39.84
2017-09-20T10:20:52.763Z,39.84
2017-09-20T10:22:01.779Z,39.84
2017-09-20T10:23:11.118Z,39.54
2017-09-20T10:24:20.460Z,39.74
2017-09-20T10:25:29.156Z,39.64
2017-09-20T10:26:38.180Z,39.74
2017-09-20T10:27:47.514Z,40.22
2017-09-20T10:28:56.209Z,39.84
2017-09-20T10:30:05.225Z,39.84
2017-09-20T10:31:14.239Z,39.84
2017-09-20T10:32:23.905Z,39.64
2017-09-20T10:33:32.921Z,40.32
2017-09-20T10:34:41.614Z,39.74
2017-09-20T10:35:50.948Z,39.74
2017-09-20T10:37:00.285Z,39.84
2017-09-20T10:38:09.301Z,39.57
2017-09-20T10:39:18.001Z,39.64
2017-09-20T10:40:27.015Z,40.03
2017-09-20T10:41:36.356Z,39.84
2017-09-20T10:42:45.371Z,39.64
2017-09-20T10:43:54.070Z,39.74
2017-09-20T10:45:03.083Z,39.94
2017-09-20T10:46:12.423Z,39.84
2017-09-20T10:47:21.436Z,39.74
2017-09-20T10:48:30.135Z,39.94
2017-09-20T10:49:39.466Z,39.74
2017-09-20T10:50:48.482Z,39.84
2017-09-20T10:51:57.494Z,39.74
2017-09-20T10:53:06.512Z,40.12
2017-09-20T10:54:15.530Z,39.84
2017-09-20T10:55:24.224Z,39.94
2017-09-20T10:56:33.237Z,39.84
2017-09-20T10:57:42.570Z,39.64
2017-09-20T10:58:51.586Z,40.12
2017-09-20T11:00:00.600Z,39.74
2017-09-20T11:01:09.613Z,39.57
2017-09-20T11:02:18.632Z,39.57
2017-09-20T11:03:27.968Z,39.66
2017-09-20T11:04:37.631Z,39.57
2017-09-20T11:05:46.644Z,39.47
2017-09-20T11:06:55.342Z,39.66
2017-09-20T11:08:04.678Z,39.66
2017-09-20T11:09:13.372Z,39.66
2017-09-20T11:10:22.385Z,39.47
2017-09-20T11:11:31.720Z,39.28
2017-09-20T11:12:40.425Z,39.37
2017-09-20T11:13:50.076Z,38.99
2017-09-20T11:14:59.099Z,38.6
2017-09-20T11:16:08.433Z,39.11
2017-09-20T11:17:17.129Z,38.71
2017-09-20T11:18:26.143Z,38.62
2017-09-20T11:19:35.799Z,38.43
2017-09-20T11:20:44.492Z,38.53
2017-09-20T11:21:53.825Z,38.71
2017-09-20T11:23:02.838Z,38.43
2017-09-20T11:24:12.174Z,38.53
2017-09-20T11:25:21.186Z,38.53
2017-09-20T11:26:29.916Z,38.43
2017-09-20T11:27:38.574Z,38.23
2017-09-20T11:28:47.589Z,38.23
2017-09-20T11:29:56.934Z,38.53
2017-09-20T11:31:06.589Z,38.43
2017-09-20T11:32:15.927Z,38.14
2017-09-20T11:33:24.624Z,38.04
2017-09-20T11:34:33.639Z,38.16
2017-09-20T11:35:42.332Z,37.67
2017-09-20T11:36:51.672Z,37.58
2017-09-20T11:38:01.008Z,37.77
2017-09-20T11:39:10.024Z,37.67
2017-09-20T11:40:19.364Z,37.58
2017-09-20T11:41:28.061Z,37.38
2017-09-20T11:42:37.394Z,37.29
2017-09-20T11:43:46.737Z,37.38
2017-09-20T11:44:55.752Z,37.19
2017-09-20T11:46:04.768Z,36.72
2017-09-20T11:47:13.461Z,36.44
2017-09-20T11:48:22.478Z,35.95
2017-09-20T11:49:31.495Z,36.46
2017-09-20T11:50:40.833Z,36.07
2017-09-20T11:51:50.172Z,36.07
2017-09-20T11:52:59.507Z,36.07
2017-09-20T11:54:08.842Z,36.16
2017-09-20T11:55:18.181Z,35.97
2017-09-20T11:56:27.519Z,36.26
2017-09-20T11:57:36.535Z,36.34
2017-09-20T11:58:45.551Z,36.15
2017-09-20T11:59:54.248Z,36.53
2017-09-20T12:01:03.580Z,36.34
2017-09-20T12:02:12.918Z,36.34
2017-09-20T12:03:21.934Z,36.34
2017-09-20T12:04:30.953Z,36.16
2017-09-20T12:05:39.965Z,35.97
2017-09-20T12:06:48.658Z,36.07
2017-09-20T12:07:57.989Z,35.58
2017-09-20T12:09:07.325Z,35.89
2017-09-20T12:10:16.023Z,35.7
2017-09-20T12:11:25.039Z,35.8
2017-09-20T12:12:34.053Z,35.89
2017-09-20T12:13:42.749Z,35.89
2017-09-20T12:14:52.407Z,35.8
2017-09-20T12:16:01.747Z,35.58
2017-09-20T12:17:10.763Z,35.97
2017-09-20T12:18:20.418Z,36.16
2017-09-20T12:19:29.751Z,36.26
2017-09-20T12:20:38.447Z,36.36
2017-09-20T12:21:47.777Z,36.46
2017-09-20T12:22:57.444Z,36.36
2017-09-20T12:24:06.772Z,36.72
2017-09-20T12:25:15.467Z,36.72
2017-09-20T12:26:24.483Z,36.53
2017-09-20T12:27:33.816Z,36.63
2017-09-20T12:28:43.470Z,37.02
2017-09-20T12:29:52.165Z,37.3
2017-09-20T12:31:01.496Z,37.4
2017-09-20T12:32:10.510Z,36.92
2017-09-20T12:33:19.527Z,37.12
2017-09-20T12:34:28.540Z,37.21
2017-09-20T12:35:37.554Z,37.4
2017-09-20T12:36:47.849Z,37.5
2017-09-20T12:37:56.880Z,37.58
2017-09-20T12:39:05.577Z,37.48
2017-09-20T12:40:14.912Z,37.96
2017-09-20T12:41:23.609Z,37.96
2017-09-20T12:42:33.266Z,38.25
2017-09-20T12:43:42.602Z,38.16
2017-09-20T12:44:51.619Z,38.45
2017-09-20T12:46:00.637Z,38.45
2017-09-20T12:47:09.340Z,38.35
2017-09-20T12:48:18.358Z,38.54
2017-09-20T12:49:27.384Z,38.25
2017-09-20T12:50:36.719Z,38.45
2017-09-20T12:51:45.732Z,38.25
2017-09-20T12:52:55.066Z,38.25
2017-09-20T12:54:04.405Z,38.54
2017-09-20T12:55:13.422Z,38.25
2017-09-20T12:56:22.438Z,38.54
2017-09-20T12:57:31.777Z,38.45
2017-09-20T12:58:41.457Z,38.64
2017-09-20T12:59:50.476Z,38.54
2017-09-20T13:01:00.134Z,38.45
2017-09-20T13:02:09.148Z,38.64
2017-09-20T13:03:18.486Z,38.45
2017-09-20T13:04:27.824Z,38.54
2017-09-20T13:05:36.841Z,38.16
2017-09-20T13:06:45.859Z,38.54
2017-09-20T13:07:55.517Z,38.25
2017-09-20T13:09:04.216Z,37.96
2017-09-20T13:10:13.262Z,37.87
2017-09-20T13:11:22.277Z,38.06
2017-09-20T13:12:31.609Z,38.16
2017-09-20T13:13:40.946Z,38.28
2017-09-20T13:14:49.961Z,38.28
2017-09-20T13:15:58.980Z,38.18
2017-09-20T13:17:08.314Z,37.98
2017-09-20T13:18:17.329Z,37.88
2017-09-20T13:19:26.023Z,37.98
2017-09-20T13:20:35.357Z,37.98
2017-09-20T13:21:44.719Z,37.7
2017-09-20T13:22:53.732Z,38.08
2017-09-20T13:24:03.384Z,38.08
2017-09-20T13:25:12.079Z,37.98
2017-09-20T13:26:21.093Z,37.98
2017-09-20T13:27:30.427Z,38.18
2017-09-20T13:28:39.770Z,38.08
2017-09-20T13:29:48.785Z,37.98
2017-09-20T13:30:58.761Z,38.18
2017-09-20T13:32:07.775Z,38.28
2017-09-20T13:33:16.790Z,38.28
2017-09-20T13:34:25.808Z,38.18
2017-09-20T13:35:34.823Z,38.28
2017-09-20T13:36:44.161Z,37.98
2017-09-20T13:37:53.189Z,37.88
2017-09-20T13:39:02.844Z,38.08
2017-09-20T13:40:12.827Z,38.08
2017-09-20T13:41:22.487Z,38.18
2017-09-20T13:42:31.500Z,38.08
2017-09-20T13:43:40.838Z,37.88
2017-09-20T13:44:50.489Z,37.98
2017-09-20T13:45:59.505Z,37.98
2017-09-20T13:47:08.840Z,37.88
2017-09-20T13:48:18.176Z,37.88
2017-09-20T13:49:27.514Z,37.88
2017-09-20T13:50:36.849Z,37.7
2017-09-20T13:51:45.546Z,37.7
2017-09-20T13:52:54.562Z,37.79
2017-09-20T13:54:03.257Z,37.7
2017-09-20T13:55:12.273Z,37.79
2017-09-20T13:56:21.288Z,37.79
2017-09-20T13:57:30.314Z,37.79
2017-09-20T13:58:39.865Z,37.88
2017-09-20T13:59:49.198Z,37.79
2017-09-20T14:00:58.534Z,37.79
2017-09-20T14:02:07.229Z,37.7
2017-09-20T14:03:16.252Z,37.79
2017-09-20T14:04:25.270Z,37.7
2017-09-20T14:05:35.280Z,37.7
2017-09-20T14:06:44.296Z,37.7
2017-09-20T14:07:53.311Z,37.7
2017-09-20T14:09:02.645Z,37.7
2017-09-20T14:10:11.341Z,37.7
2017-09-20T14:11:20.040Z,37.88
2017-09-20T14:12:29.374Z,37.7
2017-09-20T14:13:38.068Z,37.6
2017-09-20T14:14:46.767Z,37.88
2017-09-20T14:15:56.102Z,37.98
2017-09-20T14:17:05.795Z,37.6
2017-09-20T14:18:15.450Z,37.79
2017-09-20T14:19:24.464Z,37.79
2017-09-20T14:20:33.800Z,37.88
2017-09-20T14:21:42.493Z,37.79
2017-09-20T14:22:51.514Z,37.79
2017-09-20T14:24:00.531Z,37.88
2017-09-20T14:25:10.538Z,38.18
2017-09-20T14:26:19.876Z,38.18
2017-09-20T14:27:29.213Z,37.88
2017-09-20T14:28:38.549Z,38.18
2017-09-20T14:29:47.244Z,38.18
2017-09-20T14:30:56.587Z,38.08
2017-09-20T14:32:05.282Z,38.18
2017-09-20T14:33:13.979Z,38.08
2017-09-20T14:34:22.676Z,37.79
2017-09-20T14:35:31.692Z,37.98
2017-09-20T14:36:40.707Z,37.88
2017-09-20T14:37:49.404Z,37.6
2017-09-20T14:38:58.422Z,38.18
2017-09-20T14:40:07.445Z,38.18
2017-09-20T14:41:16.463Z,38.18
2017-09-20T14:42:25.159Z,38.08
2017-09-20T14:43:34.494Z,38.08
2017-09-20T14:44:44.469Z,37.98
2017-09-20T14:45:53.163Z,38.18
2017-09-20T14:47:01.858Z,38.28
2017-09-20T14:48:11.194Z,38.06
2017-09-20T14:49:20.210Z,38.18
2017-09-20T14:50:30.185Z,38.35
2017-09-20T14:51:39.199Z,38.16
2017-09-20T14:52:48.531Z,37.79